Time;durP1;ratioP1;P1;durP2;ratioP2;P2;SDS_P1;SDS_P2;PMS_P1;PMS_P2;Temp;Humidity;BMP_temperature;BMP_pressure;BME280_temperature;BME280_humidity;BME280_pressure;Samples;Min_cycle;Max_cycle;Signal;HPM_P1;HPM_P2
2023/10/18 00:00:34;;;;;;;16.60;9.02;;;;;;;8.33;56.82;100301.78;4424768;32;34403;-77
2023/10/18 00:03:02;;;;;;;17.58;8.55;;;;;;;8.31;56.84;100308.53;4424100;32;32636;-77
2023/10/18 00:05:31;;;;;;;17.73;9.15;;;;;;;8.22;56.66;100307.97;4420816;32;33962;-77
2023/10/18 00:07:59;;;;;;;17.85;9.95;;;;;;;8.32;56.21;100299.97;4413184;32;33588;-77
2023/10/18 00:10:27;;;;;;;16.67;9.50;;;;;;;8.35;55.81;100294.13;4426911;32;33486;-77
2023/10/18 00:12:55;;;;;;;15.93;9.15;;;;;;;8.30;55.66;100291.25;4425698;32;33651;-77
2023/10/18 00:15:23;;;;;;;16.12;8.82;;;;;;;8.41;55.40;100279.03;4430744;32;33735;-77
2023/10/18 00:17:51;;;;;;;16.62;9.00;;;;;;;8.28;55.80;100274.78;4425974;32;33682;-77
2023/10/18 00:20:25;;;;;;;15.67;8.80;;;;;;;8.17;56.00;100273.22;4420616;32;33673;-77
2023/10/18 00:22:54;;;;;;;21.42;10.30;;;;;;;8.19;56.02;100287.13;4422991;32;32445;-77
2023/10/18 00:25:22;;;;;;;21.00;10.20;;;;;;;8.21;55.92;100285.56;4424165;32;33525;-76
2023/10/18 00:27:50;;;;;;;18.50;9.57;;;;;;;8.56;54.47;100299.75;4412433;32;34374;-77
2023/10/18 00:30:18;;;;;;;17.73;8.70;;;;;;;8.38;54.71;100291.72;4424995;32;34285;-77
2023/10/18 00:32:46;;;;;;;17.52;8.82;;;;;;;8.16;55.47;100286.94;4427044;32;33173;-77
2023/10/18 00:35:31;;;;;;;16.55;8.45;;;;;;;8.05;55.67;100300.06;4426047;32;33665;-76
2023/10/18 00:37:59;;;;;;;19.40;9.93;;;;;;;8.31;54.82;100287.87;4421246;32;33931;-77
2023/10/18 00:43:13;;;;;;;18.48;9.60;;;;;;;7.78;55.84;100283.72;4421292;32;32828;-77
2023/10/18 00:45:47;;;;;;;19.02;9.82;;;;;;;8.23;55.10;100279.69;4412113;32;32741;-76
2023/10/18 00:48:17;;;;;;;17.75;9.80;;;;;;;7.96;55.79;100273.69;4429780;32;33899;-76
2023/10/18 00:50:48;;;;;;;17.58;10.23;;;;;;;8.15;55.20;100274.81;4411695;32;32677;-77
2023/10/18 00:53:20;;;;;;;17.50;10.02;;;;;;;7.96;55.74;100268.53;4424059;32;33860;-76
2023/10/18 00:55:52;;;;;;;19.62;10.00;;;;;;;7.63;56.83;100273.34;4409297;32;31741;-77
2023/10/18 00:58:22;;;;;;;17.85;9.88;;;;;;;7.49;57.46;100274.13;4433125;32;34016;-76
2023/10/18 01:00:51;;;;;;;19.02;9.80;;;;;;;7.44;57.65;100270.38;4426916;32;33204;-77
2023/10/18 01:03:28;;;;;;;16.87;9.60;;;;;;;7.33;58.19;100273.94;4411750;32;33233;-77
2023/10/18 01:06:08;;;;;;;17.60;9.23;;;;;;;7.61;57.23;100269.78;4423084;32;33993;-76
2023/10/18 01:08:39;;;;;;;16.35;8.73;;;;;;;7.48;57.39;100256.91;4426235;32;33679;-76
2023/10/18 01:11:08;;;;;;;18.37;8.57;;;;;;;7.59;56.83;100253.31;4432370;32;33521;-77
2023/10/18 01:13:40;;;;;;;15.60;8.38;;;;;;;7.48;56.60;100252.62;4428841;32;33856;-76
2023/10/18 01:16:15;;;;;;;19.73;9.27;;;;;;;7.42;56.74;100241.03;4424787;32;33679;-77
2023/10/18 01:18:44;;;;;;;15.48;8.02;;;;;;;7.29;57.18;100250.53;4423058;32;33236;-77
2023/10/18 01:21:22;;;;;;;16.58;7.97;;;;;;;7.27;57.62;100235.78;4427811;32;33541;-77
2023/10/18 01:23:54;;;;;;;19.27;9.10;;;;;;;7.34;57.59;100244.78;4425505;32;32325;-76
2023/10/18 01:26:26;;;;;;;15.80;8.23;;;;;;;7.24;57.62;100239.06;4427510;32;33395;-76
2023/10/18 01:28:55;;;;;;;16.10;8.55;;;;;;;7.60;56.75;100247.34;4434950;32;31885;-77
2023/10/18 01:31:24;;;;;;;17.42;8.25;;;;;;;7.29;57.32;100239.34;4422142;32;33530;-77
2023/10/18 01:33:53;;;;;;;15.57;8.23;;;;;;;7.43;56.92;100247.97;4433176;32;33434;-76
2023/10/18 01:36:22;;;;;;;15.85;8.27;;;;;;;7.71;56.02;100240.31;4427613;32;34334;-76
2023/10/18 01:38:52;;;;;;;16.42;8.15;;;;;;;7.53;56.22;100234.84;4410605;32;33836;-77
2023/10/18 01:41:29;;;;;;;18.12;8.50;;;;;;;7.59;55.83;100239.50;4424011;32;34278;-77
2023/10/18 01:44:10;;;;;;;14.43;8.30;;;;;;;7.49;56.19;100232.88;4425588;32;33369;-76
2023/10/18 01:46:46;;;;;;;15.15;8.20;;;;;;;7.56;56.04;100235.06;4430488;32;32922;-76
2023/10/18 01:49:18;;;;;;;15.60;8.18;;;;;;;7.78;54.95;100239.00;4425429;32;32959;-76
2023/10/18 01:51:51;;;;;;;16.20;8.32;;;;;;;7.58;55.35;100237.75;4433068;32;34032;-77
2023/10/18 01:54:20;;;;;;;14.25;8.27;;;;;;;7.38;56.08;100239.03;4427980;32;32729;-76
2023/10/18 01:56:47;;;;;;;16.83;8.27;;;;;;;7.43;55.99;100237.66;4429146;32;34424;-77
2023/10/18 01:59:18;;;;;;;16.17;8.20;;;;;;;7.56;55.94;100231.59;4425168;32;33790;-76
2023/10/18 02:01:51;;;;;;;15.10;9.13;;;;;;;7.50;55.96;100234.69;4434254;32;32720;-76
2023/10/18 02:04:26;;;;;;;17.27;9.25;;;;;;;7.61;55.72;100238.84;4427790;32;34172;-76
2023/10/18 02:06:57;;;;;;;17.27;9.45;;;;;;;7.81;54.51;100240.09;4415802;32;33831;-76
2023/10/18 02:09:57;;;;;;;17.15;9.32;;;;;;;7.59;54.93;100235.28;4423929;32;33913;-76
2023/10/18 02:12:20;;;;;;;14.27;8.90;;;;;;;7.53;55.24;100240.00;4432745;32;33166;-76
2023/10/18 02:14:49;;;;;;;18.00;10.43;;;;;;;7.25;56.09;100235.69;4427887;32;33087;-76
2023/10/18 02:17:18;;;;;;;16.25;9.80;;;;;;;6.96;56.84;100238.03;4430532;32;33401;-76
2023/10/18 02:19:47;;;;;;;15.20;8.43;;;;;;;6.91;57.28;100235.16;4410404;32;33557;-76
2023/10/18 02:22:18;;;;;;;17.27;8.57;;;;;;;7.27;56.56;100246.97;4418666;32;33798;-76
2023/10/18 02:24:50;;;;;;;16.98;9.18;;;;;;;7.40;55.59;100243.50;4415199;32;33264;-77
2023/10/18 02:27:19;;;;;;;17.25;8.73;;;;;;;7.40;55.23;100240.06;4427556;32;33383;-76
2023/10/18 02:29:48;;;;;;;16.58;8.00;;;;;;;7.38;55.03;100239.03;4433218;32;33899;-76
2023/10/18 02:32:23;;;;;;;19.15;8.40;;;;;;;7.29;54.47;100245.38;4432379;32;34328;-77
2023/10/18 02:34:51;;;;;;;18.95;8.50;;;;;;;6.77;56.00;100246.22;4434295;32;32589;-77
2023/10/18 02:37:19;;;;;;;18.65;7.87;;;;;;;6.91;55.74;100240.28;4426455;32;34493;-76
2023/10/18 02:39:49;;;;;;;15.85;7.35;;;;;;;6.72;56.14;100242.44;4413446;32;32590;-77
2023/10/18 02:42:32;;;;;;;14.20;8.10;;;;;;;6.89;55.68;100247.94;4429128;32;32823;-76
2023/10/18 02:45:01;;;;;;;16.42;8.32;;;;;;;6.92;55.60;100252.41;4431687;32;32899;-77
2023/10/18 02:47:29;;;;;;;15.70;8.07;;;;;;;6.65;56.46;100254.03;4428158;32;33809;-76
2023/10/18 02:49:58;;;;;;;14.40;8.07;;;;;;;6.76;56.51;100250.50;4425261;32;33708;-77
2023/10/18 02:52:30;;;;;;;11.80;8.02;;;;;;;7.10;55.89;100252.72;4430595;32;33591;-76
2023/10/18 02:55:01;;;;;;;14.70;7.68;;;;;;;6.82;56.66;100245.75;4434922;32;33541;-76
2023/10/18 02:57:31;;;;;;;14.18;7.60;;;;;;;6.64;57.16;100247.06;4427067;32;34177;-76
2023/10/18 03:00:10;;;;;;;13.88;7.22;;;;;;;6.75;56.83;100238.38;4423914;32;33483;-76
2023/10/18 03:02:40;;;;;;;13.68;7.97;;;;;;;6.87;56.79;100244.34;4428657;32;33671;-76
2023/10/18 03:05:10;;;;;;;16.85;8.27;;;;;;;6.77;56.88;100247.09;4425379;32;33270;-77
2023/10/18 03:07:38;;;;;;;16.23;8.80;;;;;;;6.87;56.15;100239.19;4430975;32;34370;-76
2023/10/18 03:10:13;;;;;;;16.30;8.55;;;;;;;6.89;55.76;100235.06;4424876;32;33851;-76
2023/10/18 03:12:44;;;;;;;16.02;8.73;;;;;;;7.10;55.46;100239.81;4429400;32;33189;-76
2023/10/18 03:15:18;;;;;;;17.80;9.30;;;;;;;6.71;56.87;100243.25;4432564;32;33924;-76
2023/10/18 03:17:49;;;;;;;17.42;9.68;;;;;;;6.74;56.69;100230.56;4423894;32;34157;-76
2023/10/18 03:20:23;;;;;;;13.90;8.60;;;;;;;6.67;56.86;100231.84;4426946;32;33570;-76
2023/10/18 03:22:52;;;;;;;14.37;8.43;;;;;;;6.70;56.57;100229.47;4432227;32;33825;-76
2023/10/18 03:25:27;;;;;;;15.88;8.48;;;;;;;6.65;56.74;100231.72;4431433;32;33081;-77
2023/10/18 03:27:58;;;;;;;13.15;8.45;;;;;;;6.67;56.73;100230.16;4423981;32;33271;-76
2023/10/18 03:30:48;;;;;;;14.87;8.40;;;;;;;6.48;57.48;100237.44;4428518;32;33684;-76
2023/10/18 03:33:14;;;;;;;16.58;8.77;;;;;;;6.44;57.53;100228.59;4432210;32;32651;-76
2023/10/18 03:35:43;;;;;;;15.63;8.43;;;;;;;6.44;57.72;100235.44;4429407;32;33752;-77
2023/10/18 03:38:17;;;;;;;15.00;8.50;;;;;;;6.72;56.68;100221.84;4425751;32;34548;-76
2023/10/18 03:40:48;;;;;;;13.27;7.68;;;;;;;6.69;56.72;100217.41;4430724;32;33341;-76
2023/10/18 03:43:16;;;;;;;12.95;8.23;;;;;;;6.75;55.86;100222.94;4429657;32;35011;-76
2023/10/18 03:48:39;;;;;;;15.23;9.23;;;;;;;6.45;56.96;100220.09;4427110;32;33843;-76
2023/10/18 03:51:07;;;;;;;18.52;9.75;;;;;;;6.41;57.33;100223.25;4424093;32;32914;-77
2023/10/18 03:53:36;;;;;;;15.68;9.07;;;;;;;6.58;56.97;100213.19;4433692;32;33855;-77
2023/10/18 03:56:06;;;;;;;14.45;9.15;;;;;;;6.41;57.33;100224.91;4425352;32;33783;-77
2023/10/18 03:58:35;;;;;;;17.60;9.35;;;;;;;6.33;57.59;100226.97;4423622;32;33476;-76
2023/10/18 04:01:05;;;;;;;15.27;9.20;;;;;;;6.51;57.00;100227.34;4431294;32;34251;-77
2023/10/18 04:03:35;;;;;;;17.30;9.27;;;;;;;6.64;56.45;100218.75;4430672;32;33803;-76
2023/10/18 04:06:08;;;;;;;17.37;10.93;;;;;;;6.45;56.45;100220.09;4424961;32;34036;-76
2023/10/18 04:08:36;;;;;;;16.15;9.40;;;;;;;6.36;56.76;100227.19;4424457;32;33552;-77
2023/10/18 04:11:04;;;;;;;15.07;8.57;;;;;;;6.59;56.40;100225.28;4431864;32;33651;-77
2023/10/18 04:13:32;;;;;;;15.25;8.93;;;;;;;6.66;56.46;100222.31;4409232;32;33474;-77
2023/10/18 04:16:03;;;;;;;16.85;9.70;;;;;;;6.64;56.64;100214.50;4432129;32;33052;-77
2023/10/18 04:18:35;;;;;;;14.15;8.82;;;;;;;6.75;56.20;100217.78;4428336;32;34178;-76
2023/10/18 04:21:05;;;;;;;15.13;9.17;;;;;;;6.66;56.37;100227.47;4422295;32;33840;-77
2023/10/18 04:23:34;;;;;;;16.52;9.00;;;;;;;6.35;57.03;100237.37;4408270;32;32949;-77
2023/10/18 04:26:03;;;;;;;15.00;8.95;;;;;;;6.60;56.57;100232.22;4427902;32;33432;-77
2023/10/18 04:28:38;;;;;;;15.05;9.02;;;;;;;6.46;56.99;100239.00;4433904;32;33377;-76
2023/10/18 04:31:11;;;;;;;14.35;9.00;;;;;;;6.34;57.25;100228.78;4428666;32;33222;-76
2023/10/18 04:33:42;;;;;;;16.45;9.35;;;;;;;6.48;56.99;100233.16;4426320;32;33813;-77
2023/10/18 04:36:15;;;;;;;16.15;9.23;;;;;;;6.34;57.24;100240.75;4425152;32;33030;-76
2023/10/18 04:38:44;;;;;;;15.25;9.43;;;;;;;6.41;57.11;100236.13;4425718;32;33432;-77
2023/10/18 04:44:11;;;;;;;20.75;11.73;;;;;;;6.31;57.60;100236.28;4413429;32;32855;-76
2023/10/18 04:46:39;;;;;;;17.90;10.68;;;;;;;6.23;57.68;100234.84;4427060;32;32621;-76
2023/10/18 04:54:11;;;;;;;15.25;9.13;;;;;;;6.13;57.86;100238.47;4417963;32;33807;-76
2023/10/18 04:56:39;;;;;;;15.05;8.70;;;;;;;6.36;57.56;100232.34;4430420;32;34022;-76
2023/10/18 04:59:11;;;;;;;16.95;9.45;;;;;;;6.20;58.00;100232.06;4408938;32;33179;-76
2023/10/18 05:01:56;;;;;;;16.35;9.32;;;;;;;6.32;57.80;100238.06;4416136;32;33029;-76
2023/10/18 05:04:29;;;;;;;17.07;10.97;;;;;;;6.58;56.94;100234.69;4430219;32;32759;-76
2023/10/18 05:07:00;;;;;;;17.40;10.63;;;;;;;6.52;56.95;100234.28;4426797;32;32672;-76
2023/10/18 05:09:55;;;;;;;16.00;9.43;;;;;;;6.53;56.88;100236.06;4428272;32;33708;-76
2023/10/18 05:14:53;;;;;;;15.27;9.52;;;;;;;6.42;57.44;100232.75;4426126;32;34355;-76
2023/10/18 05:17:21;;;;;;;16.62;9.35;;;;;;;6.55;57.04;100236.16;4426381;32;33131;-75
2023/10/18 05:19:50;;;;;;;15.80;9.52;;;;;;;6.54;57.20;100232.69;4424545;32;33360;-76
2023/10/18 05:22:20;;;;;;;16.23;9.77;;;;;;;6.71;56.61;100230.37;4423139;32;33763;-76
2023/10/18 05:25:15;;;;;;;17.25;10.38;;;;;;;6.45;58.51;100240.69;4434017;32;32819;-76
2023/10/18 05:28:08;;;;;;;21.55;12.37;;;;;;;6.44;58.04;100241.47;4427076;32;32291;-76
2023/10/18 05:41:29;;;;;;;22.27;12.75;;;;;;;6.61;56.54;100258.06;4426966;32;33328;-76
2023/10/18 05:44:00;;;;;;;19.60;12.00;;;;;;;6.88;55.81;100248.72;4433150;32;33249;-76
2023/10/18 05:46:33;;;;;;;19.40;11.75;;;;;;;6.69;56.15;100256.00;4427398;32;34402;-76
2023/10/18 05:49:01;;;;;;;19.08;11.23;;;;;;;6.52;56.53;100249.72;4433906;32;33779;-77
2023/10/18 05:51:37;;;;;;;21.52;11.88;;;;;;;6.24;57.42;100249.53;4426207;32;34633;-76
2023/10/18 05:54:06;;;;;;;17.90;10.30;;;;;;;6.45;57.14;100251.00;4427636;32;33147;-77
2023/10/18 05:56:36;;;;;;;19.48;9.73;;;;;;;6.55;56.84;100249.00;4423782;32;33707;-76
2023/10/18 06:01:58;;;;;;;18.80;10.00;;;;;;;6.57;56.72;100248.34;4425257;32;32957;-76
2023/10/18 06:04:37;;;;;;;17.08;9.23;;;;;;;6.75;56.09;100243.53;4435315;32;33518;-76
2023/10/18 06:07:09;;;;;;;18.20;10.77;;;;;;;6.66;56.54;100258.34;4432723;32;33204;-76
2023/10/18 06:09:57;;;;;;;17.98;9.50;;;;;;;6.72;56.74;100263.03;4415392;32;33221;-76
2023/10/18 06:12:30;;;;;;;16.75;9.18;;;;;;;7.01;55.43;100253.00;4435256;32;32771;-76
2023/10/18 06:15:10;;;;;;;16.85;9.10;;;;;;;6.83;56.32;100262.97;4427110;32;33464;-76
2023/10/18 06:20:14;;;;;;;17.80;10.05;;;;;;;6.95;56.61;100273.19;4433505;32;33259;-76
2023/10/18 06:22:47;;;;;;;18.03;10.07;;;;;;;6.64;57.87;100275.38;4432618;32;33411;-76
2023/10/18 06:25:25;;;;;;;19.12;10.32;;;;;;;6.79;57.72;100273.84;4426569;32;33056;-77
2023/10/18 06:27:53;;;;;;;17.83;10.32;;;;;;;6.72;58.23;100274.22;4431716;32;33701;-77
2023/10/18 06:30:24;;;;;;;21.08;10.88;;;;;;;6.72;58.68;100284.50;4428489;32;33376;-77
2023/10/18 06:32:52;;;;;;;19.37;11.32;;;;;;;6.85;58.70;100281.09;4428663;32;33350;-76
2023/10/18 06:35:26;;;;;;;18.75;10.80;;;;;;;7.15;58.27;100277.09;4428810;32;33884;-77
2023/10/18 06:37:54;;;;;;;21.20;12.35;;;;;;;7.42;57.79;100277.13;4424164;32;32163;-77
2023/10/18 06:40:32;;;;;;;20.83;12.68;;;;;;;7.45;57.88;100272.16;4426493;32;33539;-77
2023/10/18 06:43:03;;;;;;;20.27;11.43;;;;;;;7.29;58.60;100281.47;4415684;32;33194;-77
2023/10/18 06:45:33;;;;;;;21.40;11.70;;;;;;;7.59;58.16;100279.09;4423783;32;32934;-77
2023/10/18 06:48:03;;;;;;;19.70;11.57;;;;;;;7.42;59.00;100278.00;4427841;32;33168;-77
2023/10/18 06:50:32;;;;;;;22.67;12.25;;;;;;;7.42;59.52;100274.53;4429548;32;33127;-77
2023/10/18 06:53:00;;;;;;;20.23;12.23;;;;;;;7.88;58.51;100269.75;4431173;32;33633;-77
2023/10/18 06:55:55;;;;;;;18.73;11.87;;;;;;;8.11;58.06;100280.59;4424352;32;33456;-78
2023/10/18 07:00:54;;;;;;;19.55;12.00;;;;;;;8.44;57.88;100267.22;4426358;32;33987;-77
2023/10/18 07:03:27;;;;;;;18.87;11.85;;;;;;;8.33;58.56;100260.47;4429203;32;34377;-77
2023/10/18 07:06:04;;;;;;;19.17;12.32;;;;;;;8.39;59.01;100265.13;4426045;32;33250;-77
2023/10/18 07:08:34;;;;;;;18.95;12.43;;;;;;;8.52;59.27;100271.94;4429678;32;33790;-77
2023/10/18 07:11:02;;;;;;;19.65;13.23;;;;;;;8.96;58.44;100272.03;4417351;32;32533;-77
2023/10/18 07:13:53;;;;;;;21.48;13.32;;;;;;;8.67;59.73;100262.53;4428039;32;33814;-77
2023/10/18 07:21:42;;;;;;;21.37;14.18;;;;;;;9.07;59.67;100276.91;4433180;32;33512;-77
2023/10/18 07:24:10;;;;;;;21.95;13.27;;;;;;;9.45;59.21;100279.12;4426520;32;32679;-77
2023/10/18 07:26:40;;;;;;;23.48;14.23;;;;;;;9.30;60.21;100273.97;4426005;32;33964;-77
2023/10/18 07:29:08;;;;;;;21.52;13.45;;;;;;;9.74;59.47;100272.13;4421680;32;33942;-77
2023/10/18 07:31:39;;;;;;;19.92;12.63;;;;;;;9.91;59.15;100263.59;4425155;32;34135;-77
2023/10/18 07:34:08;;;;;;;17.05;11.88;;;;;;;10.16;58.63;100268.41;4416349;32;33436;-77
2023/10/18 07:36:38;;;;;;;18.75;11.95;;;;;;;9.77;59.49;100260.25;4417456;32;34572;-77
2023/10/18 07:39:06;;;;;;;20.08;11.98;;;;;;;10.11;58.53;100248.25;4429312;32;33709;-77
2023/10/18 07:41:36;;;;;;;16.37;11.95;;;;;;;10.14;58.72;100253.56;4433463;32;33110;-77
2023/10/18 07:44:07;;;;;;;18.90;11.95;;;;;;;10.11;59.09;100254.31;4425768;32;33406;-77
2023/10/18 07:46:39;;;;;;;18.60;11.23;;;;;;;10.65;57.77;100249.41;4423525;32;33619;-77
2023/10/18 07:49:15;;;;;;;15.30;10.63;;;;;;;10.76;56.91;100248.25;4422374;32;34085;-77
2023/10/18 07:51:55;;;;;;;16.02;10.65;;;;;;;11.07;55.83;100241.09;4432171;32;32029;-77
2023/10/18 07:54:24;;;;;;;15.83;10.90;;;;;;;11.23;54.85;100240.19;4429146;32;33234;-78
2023/10/18 07:56:55;;;;;;;16.17;11.02;;;;;;;11.19;54.36;100237.44;4430346;32;32339;-77
2023/10/18 07:59:29;;;;;;;16.17;10.80;;;;;;;11.18;54.73;100233.06;4409951;32;33676;-78
2023/10/18 08:02:13;;;;;;;15.77;10.75;;;;;;;11.25;54.89;100233.37;4426163;32;32656;-77
2023/10/18 08:04:42;;;;;;;18.17;11.00;;;;;;;11.53;53.95;100232.97;4427978;32;33195;-78
2023/10/18 08:07:15;;;;;;;17.73;10.98;;;;;;;11.85;52.66;100234.50;4408995;32;33490;-78
2023/10/18 08:09:43;;;;;;;17.92;10.98;;;;;;;11.90;52.80;100238.25;4425032;32;31863;-78
2023/10/18 08:14:58;;;;;;;15.90;10.40;;;;;;;12.30;67.49;100247.84;4425889;32;34009;-78
2023/10/18 08:17:44;;;;;;;15.52;10.23;;;;;;;12.54;57.01;100228.97;4425688;32;33570;-77
2023/10/18 08:22:50;;;;;;;17.40;10.75;;;;;;;12.72;51.37;100234.97;4427670;32;32601;-78
2023/10/18 08:25:21;;;;;;;16.35;10.65;;;;;;;13.23;49.97;100224.09;4430697;32;34050;-78
2023/10/18 08:27:52;;;;;;;15.65;10.20;;;;;;;13.36;48.86;100231.56;4428069;32;33626;-77
2023/10/18 08:30:24;;;;;;;16.26;10.74;;;;;;;13.29;48.21;100228.62;4418746;32;33546;-78
2023/10/18 08:32:52;;;;;;;16.35;10.65;;;;;;;13.20;48.75;100220.47;4420364;32;33074;-78
2023/10/18 08:35:20;;;;;;;18.37;10.82;;;;;;;13.62;47.92;100223.03;4420301;32;33913;-79
2023/10/18 08:37:48;;;;;;;16.90;10.43;;;;;;;13.93;47.07;100223.41;4395585;32;32505;-79
2023/10/18 08:40:27;;;;;;;14.73;10.45;;;;;;;14.02;47.06;100221.97;4429989;32;33888;-78
2023/10/18 08:43:06;;;;;;;17.67;10.38;;;;;;;14.28;46.50;100213.41;4415443;32;33451;-79
2023/10/18 08:45:45;;;;;;;16.83;10.52;;;;;;;14.56;45.12;100209.16;4407887;32;32685;-79
2023/10/18 08:48:17;;;;;;;14.10;9.52;;;;;;;14.54;45.05;100210.84;4429749;32;32832;-80
2023/10/18 08:50:45;;;;;;;14.46;9.13;;;;;;;14.75;44.75;100202.91;4411165;32;32928;-79
2023/10/18 08:53:15;;;;;;;15.13;9.80;;;;;;;15.07;43.77;100203.13;4413807;32;34175;-79
2023/10/18 08:55:43;;;;;;;13.75;9.25;;;;;;;15.21;43.41;100200.97;4419844;32;33800;-79
2023/10/18 08:58:17;;;;;;;17.30;9.40;;;;;;;15.30;42.86;100202.13;4425145;32;34400;-79
2023/10/18 09:03:14;;;;;;;13.80;8.82;;;;;;;15.39;41.87;100205.88;4431148;32;33052;-79
2023/10/18 09:05:42;;;;;;;12.95;8.20;;;;;;;15.84;41.37;100196.00;4407904;32;34244;-78
2023/10/18 09:08:19;;;;;;;13.18;8.55;;;;;;;16.14;40.74;100195.09;4412623;32;34349;-78
2023/10/18 09:10:54;;;;;;;12.95;8.07;;;;;;;16.38;39.87;100183.56;4421374;32;33571;-78
2023/10/18 09:15:55;;;;;;;13.33;8.50;;;;;;;16.41;39.27;100183.66;4424669;32;33827;-78
2023/10/18 09:18:32;;;;;;;15.02;8.60;;;;;;;16.69;39.37;100180.94;4435239;32;33672;-78
2023/10/18 09:23:41;;;;;;;13.65;8.40;;;;;;;16.76;38.85;100186.31;4420498;32;33366;-78
2023/10/18 09:26:10;;;;;;;14.25;8.50;;;;;;;17.15;38.00;100196.03;4422016;32;33901;-78
2023/10/18 09:28:41;;;;;;;13.27;8.65;;;;;;;17.40;37.54;100187.94;4411058;32;33640;-78
2023/10/18 09:31:18;;;;;;;13.32;8.48;;;;;;;17.76;36.81;100171.28;4423409;32;32604;-79
2023/10/18 09:33:50;;;;;;;15.18;8.48;;;;;;;17.79;36.47;100181.84;4423023;32;32026;-80
2023/10/18 09:36:20;;;;;;;12.60;8.57;;;;;;;17.62;36.28;100170.09;4427690;32;35122;-79
2023/10/18 09:38:48;;;;;;;15.80;9.07;;;;;;;17.67;35.87;100165.81;4427190;32;33262;-79
2023/10/18 09:41:16;;;;;;;12.88;8.77;;;;;;;17.92;35.56;100166.37;4432522;32;34087;-81
2023/10/18 09:43:46;;;;;;;13.70;9.05;;;;;;;17.97;35.52;100175.25;4423770;32;32956;-78
2023/10/18 09:46:15;;;;;;;13.90;9.35;;;;;;;18.28;35.14;100164.50;4421544;32;34239;-80
2023/10/18 09:48:45;;;;;;;13.90;9.15;;;;;;;18.33;35.06;100168.94;4429140;32;34333;-78
2023/10/18 09:51:15;;;;;;;14.27;8.65;;;;;;;18.51;34.87;100164.06;4430427;32;33436;-78
2023/10/18 09:53:48;;;;;;;15.10;8.77;;;;;;;18.47;34.76;100157.00;4424465;32;33866;-78
2023/10/18 09:56:19;;;;;;;11.27;6.93;;;;;;;18.76;34.98;100164.50;4424566;32;33460;-78
2023/10/18 09:58:47;;;;;;;11.63;6.20;;;;;;;19.15;32.75;100168.69;4424410;32;32006;-78
2023/10/18 10:01:17;;;;;;;11.20;6.90;;;;;;;19.03;32.63;100153.63;4411135;32;33568;-78
2023/10/18 10:03:50;;;;;;;12.57;7.50;;;;;;;19.01;32.75;100161.47;4422050;32;33283;-78
2023/10/18 10:06:27;;;;;;;11.43;7.03;;;;;;;19.46;31.99;100154.25;4409472;32;33309;-79
2023/10/18 10:09:12;;;;;;;11.57;6.97;;;;;;;19.85;32.23;100150.44;4422794;32;32972;-79
2023/10/18 10:11:43;;;;;;;10.68;6.43;;;;;;;19.74;32.53;100149.41;4428902;32;32932;-78
2023/10/18 10:14:16;;;;;;;11.10;6.12;;;;;;;19.50;32.56;100142.06;4428585;32;33079;-79
2023/10/18 10:16:57;;;;;;;10.70;5.87;;;;;;;19.71;32.14;100139.72;4429233;32;33296;-80
2023/10/18 10:19:30;;;;;;;10.98;6.55;;;;;;;20.00;31.39;100136.59;4417176;32;33490;-78
2023/10/18 10:22:04;;;;;;;10.15;6.07;;;;;;;20.22;31.46;100128.09;4404559;32;33128;-79
2023/10/18 10:24:42;;;;;;;11.63;6.00;;;;;;;20.16;30.52;100125.37;4413146;32;32641;-78
2023/10/18 10:27:28;;;;;;;10.32;5.43;;;;;;;20.40;31.00;100118.63;4427486;32;33192;-79
2023/10/18 10:29:57;;;;;;;9.75;5.10;;;;;;;20.41;30.62;100112.47;4422501;32;32968;-79
2023/10/18 10:32:27;;;;;;;11.80;5.60;;;;;;;20.26;29.94;100112.31;4408823;32;33257;-80
2023/10/18 10:35:16;;;;;;;10.02;5.25;;;;;;;20.26;30.19;100109.69;4429164;32;34046;-79
2023/10/18 10:37:46;;;;;;;9.10;5.03;;;;;;;20.51;29.82;100100.28;4428553;32;32836;-79
2023/10/18 10:40:36;;;;;;;11.18;4.50;;;;;;;20.41;29.88;100102.81;4428011;32;33539;-79
2023/10/18 10:43:10;;;;;;;11.23;5.50;;;;;;;20.69;42.41;100105.75;4410126;32;31290;-79
2023/10/18 10:48:18;;;;;;;10.97;4.77;;;;;;;21.08;30.02;100096.41;4431235;32;32786;-79
2023/10/18 10:50:53;;;;;;;8.55;4.90;;;;;;;21.41;28.24;100085.16;4411795;32;32673;-79
2023/10/18 10:53:44;;;;;;;9.75;5.10;;;;;;;21.30;28.55;100089.50;4430395;32;33147;-79
2023/10/18 10:56:23;;;;;;;10.07;5.85;;;;;;;21.13;29.27;100088.50;4416633;32;32643;-79
2023/10/18 10:59:03;;;;;;;11.73;5.50;;;;;;;21.10;28.83;100083.25;4425462;32;32593;-79
2023/10/18 11:01:43;;;;;;;9.90;5.25;;;;;;;21.40;28.51;100066.72;4415286;32;35180;-79
2023/10/18 11:04:11;;;;;;;10.38;5.80;;;;;;;21.14;28.02;100077.13;4429857;32;33171;-79
2023/10/18 11:06:43;;;;;;;8.60;5.55;;;;;;;21.11;28.52;100074.44;4428885;32;32992;-79
2023/10/18 11:09:15;;;;;;;10.57;5.63;;;;;;;20.82;29.40;100075.13;4401036;32;863381;-78
2023/10/18 11:11:47;;;;;;;10.30;5.57;;;;;;;20.39;29.93;100072.13;4431420;32;34214;-78
2023/10/18 11:14:18;;;;;;;9.13;5.05;;;;;;;20.58;29.98;100063.50;4405189;32;33500;-79
2023/10/18 11:16:55;;;;;;;10.77;5.35;;;;;;;20.80;29.10;100061.97;4423640;32;32897;-79
2023/10/18 11:19:29;;;;;;;10.13;5.28;;;;;;;20.61;29.44;100054.81;4431623;32;32807;-79
2023/10/18 11:21:58;;;;;;;9.63;4.97;;;;;;;20.35;30.20;100051.91;4423796;32;33408;-78
2023/10/18 11:24:27;;;;;;;9.43;5.22;;;;;;;20.42;30.00;100045.84;4416855;32;34174;-78
2023/10/18 11:26:57;;;;;;;9.73;4.80;;;;;;;20.41;29.99;100044.06;4432061;32;33246;-79
2023/10/18 11:29:25;;;;;;;9.25;3.80;;;;;;;20.57;29.75;100039.81;4426795;32;33640;-78
2023/10/18 11:31:58;;;;;;;9.15;4.53;;;;;;;20.74;50.99;100047.88;4423669;32;33930;-78
2023/10/18 11:34:27;;;;;;;9.23;4.60;;;;;;;21.41;37.19;100026.31;4422514;32;34361;-78
2023/10/18 11:36:55;;;;;;;9.30;4.55;;;;;;;22.19;30.48;100023.94;4427319;32;33044;-79
2023/10/18 11:39:29;;;;;;;9.60;5.03;;;;;;;22.56;29.77;100018.69;4414960;32;33389;-79
2023/10/18 11:41:57;;;;;;;8.98;4.30;;;;;;;22.93;29.33;100008.06;4407441;32;32675;-78
2023/10/18 11:44:34;;;;;;;8.35;4.45;;;;;;;23.33;29.87;100013.25;4427110;32;33465;-78
2023/10/18 11:47:18;;;;;;;8.18;4.68;;;;;;;23.14;28.92;100011.53;4411185;32;32224;-78
2023/10/18 11:49:54;;;;;;;8.60;5.10;;;;;;;23.12;29.94;100005.38;4427223;32;33645;-78
2023/10/18 11:52:21;;;;;;;9.10;6.15;;;;;;;23.02;28.87;99998.34;4414350;32;31790;-78
2023/10/18 11:54:52;;;;;;;9.63;4.60;;;;;;;22.88;27.29;100004.53;4430546;32;33510;-79
2023/10/18 11:57:30;;;;;;;8.80;4.47;;;;;;;23.23;29.35;99994.78;4426364;32;32371;-79
2023/10/18 12:02:45;;;;;;;10.57;5.60;;;;;;;23.08;28.79;99996.62;4411076;32;31432;-79
2023/10/18 12:05:15;;;;;;;10.15;5.35;;;;;;;22.91;28.78;99995.75;4429955;32;33685;-79
2023/10/18 12:07:45;;;;;;;10.60;5.20;;;;;;;23.04;27.68;99992.19;4421374;32;33025;-78
2023/10/18 12:10:17;;;;;;;8.55;5.53;;;;;;;23.10;28.31;99988.66;4422104;32;33740;-78
2023/10/18 12:12:49;;;;;;;7.30;5.43;;;;;;;23.31;27.46;99977.13;4425309;32;33581;-78
2023/10/18 12:15:17;;;;;;;10.60;5.90;;;;;;;22.46;27.73;99979.94;4428722;32;33356;-79
2023/10/18 12:17:46;;;;;;;10.37;6.20;;;;;;;22.85;27.32;99972.88;4422326;32;34531;-79
2023/10/18 12:20:14;;;;;;;8.88;5.80;;;;;;;22.64;26.92;99970.25;4430601;32;33756;-79
2023/10/18 12:22:42;;;;;;;8.95;5.95;;;;;;;22.53;27.47;99963.25;4426877;32;34603;-78
2023/10/18 12:25:15;;;;;;;10.65;6.00;;;;;;;22.10;27.89;99959.72;4422828;32;33770;-79
2023/10/18 12:27:51;;;;;;;10.73;6.28;;;;;;;21.69;28.87;99964.06;4423970;32;33711;-79
2023/10/18 12:30:30;;;;;;;9.02;6.22;;;;;;;22.04;28.64;99965.88;4424590;32;32413;-79
2023/10/18 12:33:04;;;;;;;9.77;6.00;;;;;;;21.84;28.32;99960.56;4411332;32;32691;-79
2023/10/18 12:35:34;;;;;;;10.20;5.30;;;;;;;21.69;28.87;99952.63;4428435;32;34351;-79
2023/10/18 12:38:12;;;;;;;11.43;5.62;;;;;;;21.58;29.37;99947.34;4429979;32;33541;-79
2023/10/18 12:40:58;;;;;;;12.80;5.45;;;;;;;21.23;29.34;99948.09;4423262;32;32741;-80
2023/10/18 12:43:27;;;;;;;10.85;5.18;;;;;;;21.38;29.10;99942.88;4406406;32;31522;-78